Herlong, California
Current Conditions -  °F | °C
As of 11:15 PM on Thursday 30 Oct 2014 (Local Time) from KRTS Reporting Station
Clear Clear  
Wind Chill: 57°   Ceiling: Unl
Heat Index: 57°   Visibility: 10mi
Dew Point: 25°   Wind: 3mph
Humidity: 29%   Direction: 160°SSE
Pressure: 29.97"   Gusts: NA
Location:  40.13°N, 120.15°W
Report Text: KRTS 310615Z AUTO 16003KT 10SM CLR 14/M04 A2997 RMK AO2
Loading
Personal Weather Stations






























Interactive Weather Map
Tropical Storm Tracking
New forecast layout! Learn more

10-Day Weather Forecast

Advertisements
Track Severe Weather on mobile